Time;durP1;ratioP1;P1;durP2;ratioP2;P2;SDS_P1;SDS_P2;PMS_P1;PMS_P2;Temp;Humidity;BMP_temperature;BMP_pressure;BME280_temperature;BME280_humidity;BME280_pressure;Samples;Min_cycle;Max_cycle;Signal;HPM_P1;HPM_P2
2022/01/02 00:00:11;;;;;;;32.50;21.58;;;;;;;;;;5016092;28;20096;-78
2022/01/02 00:02:37;;;;;;;23.80;15.55;;;;;;;;;;5015906;28;20017;-78
2022/01/02 00:05:04;;;;;;;20.77;15.85;;;;;;;;;;5016064;28;20039;-78
2022/01/02 00:07:30;;;;;;;30.38;18.20;;;;;;;;;;5016043;28;20083;-78
2022/01/02 00:09:58;;;;;;;32.35;19.02;;;;;;;;;;5016337;28;20361;-79
2022/01/02 00:12:26;;;;;;;29.63;19.77;;;;;;;;;;5015319;28;20449;-79
2022/01/02 00:14:54;;;;;;;35.75;22.52;;;;;;;;;;5015955;28;20025;-78
2022/01/02 00:17:23;;;;;;;39.83;25.73;;;;;;;;;;5015692;28;20053;-79
2022/01/02 00:19:53;;;;;;;47.80;31.47;;;;;;;;;;5014169;28;20112;-78
2022/01/02 00:22:19;;;;;;;51.10;32.85;;;;;;;;;;5015089;28;20419;-78
2022/01/02 00:24:45;;;;;;;65.50;35.75;;;;;;;;;;5014099;28;20103;-78
2022/01/02 00:27:11;;;;;;;39.97;21.58;;;;;;;;;;5015687;28;20021;-79
2022/01/02 00:29:38;;;;;;;32.97;17.23;;;;;;;;;;5013915;28;20108;-78
2022/01/02 00:32:05;;;;;;;21.73;13.80;;;;;;;;;;5013455;28;20078;-78
2022/01/02 00:34:31;;;;;;;23.45;16.05;;;;;;;;;;5015152;28;20535;-78
2022/01/02 00:36:57;;;;;;;26.83;16.75;;;;;;;;;;5013739;28;20053;-79
2022/01/02 00:39:22;;;;;;;21.42;14.95;;;;;;;;;;5015342;28;20068;-78
2022/01/02 00:41:52;;;;;;;22.63;15.85;;;;;;;;;;5014492;28;20049;-79
2022/01/02 00:44:18;;;;;;;26.33;17.42;;;;;;;;;;5013144;28;20120;-79
2022/01/02 00:46:57;;;;;;;23.90;15.73;;;;;;;;;;5014110;28;20128;-78
2022/01/02 00:49:26;;;;;;;17.50;13.05;;;;;;;;;;5016077;28;20026;-78
2022/01/02 00:51:55;;;;;;;25.42;17.13;;;;;;;;;;5014078;28;20025;-79
2022/01/02 00:54:22;;;;;;;21.52;15.35;;;;;;;;;;5014116;28;20032;-78
2022/01/02 00:56:50;;;;;;;23.63;16.58;;;;;;;;;;5015258;28;20029;-78
2022/01/02 00:59:27;;;;;;;31.65;20.95;;;;;;;;;;5015253;28;20024;-78
2022/01/02 01:01:57;;;;;;;37.25;24.23;;;;;;;;;;5013669;28;20030;-78
2022/01/02 01:04:24;;;;;;;27.83;17.48;;;;;;;;;;5013329;28;20075;-79
2022/01/02 01:06:49;;;;;;;29.17;21.80;;;;;;;;;;5015071;28;20471;-78
2022/01/02 01:09:16;;;;;;;27.67;20.13;;;;;;;;;;5014895;28;20027;-79
2022/01/02 01:11:41;;;;;;;30.17;19.40;;;;;;;;;;5015562;28;20151;-78
2022/01/02 01:14:07;;;;;;;29.20;19.80;;;;;;;;;;5013742;28;20404;-79
2022/01/02 01:16:32;;;;;;;44.83;30.52;;;;;;;;;;5014753;28;20025;-78
2022/01/02 01:18:58;;;;;;;38.65;27.27;;;;;;;;;;5013355;28;20313;-79
2022/01/02 01:21:23;;;;;;;25.92;17.63;;;;;;;;;;5016194;28;20033;-79
2022/01/02 01:23:49;;;;;;;31.42;22.05;;;;;;;;;;5013005;28;20030;-78
2022/01/02 01:26:16;;;;;;;29.83;22.90;;;;;;;;;;5014978;28;20116;-78
2022/01/02 01:28:41;;;;;;;46.17;34.47;;;;;;;;;;5013372;28;20025;-78
2022/01/02 01:31:07;;;;;;;29.88;19.63;;;;;;;;;;5014464;28;20040;-78
2022/01/02 01:33:32;;;;;;;25.98;17.42;;;;;;;;;;5013599;28;20045;-80
2022/01/02 01:35:57;;;;;;;21.08;15.13;;;;;;;;;;5013236;28;20063;-78
2022/01/02 01:38:24;;;;;;;19.70;14.43;;;;;;;;;;5014384;28;20022;-79
2022/01/02 01:40:55;;;;;;;21.23;15.43;;;;;;;;;;5013471;28;20021;-78
2022/01/02 01:43:31;;;;;;;27.08;18.02;;;;;;;;;;5018082;28;20028;-78
2022/01/02 01:45:56;;;;;;;45.00;26.80;;;;;;;;;;5039568;28;20513;-78
2022/01/02 01:48:22;;;;;;;34.10;20.25;;;;;;;;;;5020023;28;20017;-79
2022/01/02 01:50:47;;;;;;;37.70;24.55;;;;;;;;;;5038035;28;20071;-78
2022/01/02 01:53:12;;;;;;;51.78;29.63;;;;;;;;;;5039060;28;20025;-80
2022/01/02 01:55:38;;;;;;;37.72;22.05;;;;;;;;;;5039284;28;20021;-78
2022/01/02 01:58:05;;;;;;;45.95;29.38;;;;;;;;;;5019960;28;20766;-79
2022/01/02 02:00:33;;;;;;;36.13;24.25;;;;;;;;;;5021075;28;20032;-79
2022/01/02 02:02:59;;;;;;;41.70;25.52;;;;;;;;;;5037590;28;20021;-78
2022/01/02 02:05:24;;;;;;;26.90;17.85;;;;;;;;;;5019788;28;20044;-79
2022/01/02 02:07:50;;;;;;;35.67;22.05;;;;;;;;;;5020046;28;20125;-80
2022/01/02 02:11:03;;;;;;;43.53;29.08;;;;;;;;;;5020069;28;20833;-79
2022/01/02 02:13:03;;;;;;;34.88;25.48;;;;;;;;;;5029981;28;20164;-78
2022/01/02 02:15:28;;;;;;;37.63;27.10;;;;;;;;;;5038077;28;20539;-78
2022/01/02 02:17:54;;;;;;;37.83;26.15;;;;;;;;;;5037974;28;20032;-79
2022/01/02 02:20:24;;;;;;;31.55;23.90;;;;;;;;;;5037821;28;20448;-79
2022/01/02 02:22:52;;;;;;;40.05;27.92;;;;;;;;;;5037753;28;20024;-79
2022/01/02 02:25:18;;;;;;;28.95;21.45;;;;;;;;;;5020807;28;20036;-78
2022/01/02 02:27:51;;;;;;;24.08;17.70;;;;;;;;;;5019069;28;20090;-79
2022/01/02 02:30:16;;;;;;;42.50;27.02;;;;;;;;;;5037378;28;20082;-79
2022/01/02 02:32:42;;;;;;;33.70;24.55;;;;;;;;;;5037559;28;20025;-79
2022/01/02 02:35:08;;;;;;;32.83;23.70;;;;;;;;;;5037688;28;20024;-78
2022/01/02 02:37:33;;;;;;;34.90;24.85;;;;;;;;;;5020795;28;20036;-80
2022/01/02 02:40:00;;;;;;;47.03;31.10;;;;;;;;;;5019669;28;20028;-79
2022/01/02 02:42:36;;;;;;;71.10;41.28;;;;;;;;;;5018456;28;20045;-79
2022/01/02 02:50:46;;;;;;;162.85;83.55;;;;;;;;;;5037430;28;20036;-78
2022/01/02 02:53:13;;;;;;;74.93;39.58;;;;;;;;;;5037008;28;20115;-78
2022/01/02 02:55:44;;;;;;;24.67;15.55;;;;;;;;;;5017797;28;20017;-78
2022/01/02 02:58:37;;;;;;;42.55;24.58;;;;;;;;;;5037187;28;20367;-79
2022/01/02 03:00:54;;;;;;;18.55;14.90;;;;;;;;;;5036530;28;20469;-79
2022/01/02 03:03:20;;;;;;;20.42;14.57;;;;;;;;;;5036754;28;20112;-78
2022/01/02 03:05:46;;;;;;;40.00;20.85;;;;;;;;;;5018824;28;20051;-79
2022/01/02 03:08:11;;;;;;;38.95;21.65;;;;;;;;;;5018409;28;20029;-79
2022/01/02 03:10:36;;;;;;;30.63;16.23;;;;;;;;;;5036977;28;20491;-78
2022/01/02 03:13:02;;;;;;;19.65;12.50;;;;;;;;;;5018811;28;20024;-79
2022/01/02 03:15:27;;;;;;;15.85;12.18;;;;;;;;;;5036248;28;20129;-79
2022/01/02 03:17:52;;;;;;;19.38;12.27;;;;;;;;;;5036433;28;20032;-79
2022/01/02 03:20:18;;;;;;;18.52;12.23;;;;;;;;;;5036731;28;20086;-79
2022/01/02 03:22:43;;;;;;;17.10;11.98;;;;;;;;;;5037293;28;20021;-79
2022/01/02 03:25:13;;;;;;;17.40;12.30;;;;;;;;;;5036545;28;20020;-78
2022/01/02 03:27:39;;;;;;;18.20;11.73;;;;;;;;;;5036599;28;20027;-78
2022/01/02 03:30:05;;;;;;;15.90;10.95;;;;;;;;;;5017908;28;20443;-79
2022/01/02 03:32:30;;;;;;;28.58;20.67;;;;;;;;;;5018490;28;20112;-78
2022/01/02 03:34:55;;;;;;;23.10;15.30;;;;;;;;;;5018220;28;20486;-79
2022/01/02 03:37:21;;;;;;;19.80;15.68;;;;;;;;;;5018474;28;20021;-78
2022/01/02 03:39:46;;;;;;;18.25;12.57;;;;;;;;;;5018167;28;20107;-78
2022/01/02 03:42:12;;;;;;;14.70;11.75;;;;;;;;;;5036014;28;20058;-78
2022/01/02 03:44:37;;;;;;;17.92;14.40;;;;;;;;;;5035958;28;20029;-79
2022/01/02 03:47:02;;;;;;;25.20;18.30;;;;;;;;;;5017970;28;20033;-78
2022/01/02 03:49:28;;;;;;;18.27;12.43;;;;;;;;;;5018222;28;20455;-78
2022/01/02 03:51:53;;;;;;;14.90;11.15;;;;;;;;;;5018011;28;20039;-78
2022/01/02 03:54:19;;;;;;;15.40;11.82;;;;;;;;;;5037126;28;20472;-78
2022/01/02 03:56:44;;;;;;;18.98;14.98;;;;;;;;;;5036228;28;20017;-79
2022/01/02 03:59:11;;;;;;;17.27;13.52;;;;;;;;;;5036756;28;20120;-78
2022/01/02 04:01:36;;;;;;;18.05;13.90;;;;;;;;;;5018103;28;20029;-78
2022/01/02 04:04:02;;;;;;;19.05;15.57;;;;;;;;;;5035450;28;20021;-79
2022/01/02 04:06:27;;;;;;;20.42;13.73;;;;;;;;;;5016141;28;20418;-78
2022/01/02 04:08:53;;;;;;;16.80;11.15;;;;;;;;;;5036349;28;20072;-78
2022/01/02 04:11:18;;;;;;;22.55;16.98;;;;;;;;;;5017199;28;20021;-78
2022/01/02 04:13:43;;;;;;;22.02;16.38;;;;;;;;;;5035524;28;20028;-78
2022/01/02 04:16:09;;;;;;;35.72;22.50;;;;;;;;;;5017537;28;20021;-79
2022/01/02 04:18:34;;;;;;;39.65;24.27;;;;;;;;;;5036160;28;20029;-78
2022/01/02 04:20:59;;;;;;;26.80;18.60;;;;;;;;;;5035292;28;20108;-78
2022/01/02 04:23:25;;;;;;;22.88;16.42;;;;;;;;;;5035421;28;20418;-79
2022/01/02 04:25:50;;;;;;;30.75;20.92;;;;;;;;;;5035465;28;20036;-79
2022/01/02 04:28:16;;;;;;;25.42;17.30;;;;;;;;;;5017798;28;20031;-79
2022/01/02 04:30:41;;;;;;;27.73;18.45;;;;;;;;;;5035219;28;20098;-80
2022/01/02 04:33:06;;;;;;;19.90;15.20;;;;;;;;;;5035732;28;20031;-79
2022/01/02 04:35:32;;;;;;;14.18;11.65;;;;;;;;;;5036139;28;20027;-79
2022/01/02 04:37:57;;;;;;;23.15;17.27;;;;;;;;;;5017259;28;20127;-79
2022/01/02 04:40:23;;;;;;;20.33;15.73;;;;;;;;;;5016892;28;20033;-79
2022/01/02 04:42:48;;;;;;;24.15;18.83;;;;;;;;;;5016982;28;20506;-80
2022/01/02 04:45:13;;;;;;;22.63;16.52;;;;;;;;;;5035024;28;20029;-80
2022/01/02 04:47:39;;;;;;;32.03;24.38;;;;;;;;;;5034944;28;20411;-79
2022/01/02 04:50:05;;;;;;;26.55;18.23;;;;;;;;;;5017366;28;20028;-79
2022/01/02 04:52:30;;;;;;;23.67;17.35;;;;;;;;;;5035965;28;20410;-79
2022/01/02 04:54:56;;;;;;;29.20;21.02;;;;;;;;;;5034771;28;20037;-78
2022/01/02 04:57:21;;;;;;;23.23;16.05;;;;;;;;;;5035846;28;20086;-78
2022/01/02 04:59:46;;;;;;;19.95;15.27;;;;;;;;;;5034833;28;20055;-79
2022/01/02 05:02:12;;;;;;;25.83;22.83;;;;;;;;;;5034847;28;20029;-79
2022/01/02 05:04:37;;;;;;;20.13;15.35;;;;;;;;;;5034781;28;20419;-79
2022/01/02 05:07:03;;;;;;;26.40;18.42;;;;;;;;;;5035048;28;20033;-78
2022/01/02 05:09:28;;;;;;;42.38;27.45;;;;;;;;;;5016476;28;20025;-78
2022/01/02 05:11:54;;;;;;;29.48;19.77;;;;;;;;;;5034882;28;20032;-78
2022/01/02 05:14:19;;;;;;;20.88;14.50;;;;;;;;;;5016650;28;20463;-78
2022/01/02 05:16:45;;;;;;;29.05;19.63;;;;;;;;;;5035609;28;20025;-78
2022/01/02 05:19:10;;;;;;;24.10;16.60;;;;;;;;;;5019632;28;20029;-79
2022/01/02 05:21:35;;;;;;;24.90;17.80;;;;;;;;;;5039595;28;20059;-78
2022/01/02 05:24:01;;;;;;;21.65;16.50;;;;;;;;;;5020674;28;20024;-78
2022/01/02 05:26:26;;;;;;;23.73;17.98;;;;;;;;;;5039088;28;20427;-78
2022/01/02 05:28:51;;;;;;;19.70;14.10;;;;;;;;;;5037855;28;20108;-79
2022/01/02 05:31:17;;;;;;;19.58;15.32;;;;;;;;;;5038610;28;20028;-78
2022/01/02 05:33:42;;;;;;;20.05;14.82;;;;;;;;;;5020190;28;20206;-78
2022/01/02 05:36:07;;;;;;;77.53;53.75;;;;;;;;;;5038606;28;20028;-78
2022/01/02 05:38:33;;;;;;;93.47;67.63;;;;;;;;;;5039842;28;20047;-78
2022/01/02 05:40:58;;;;;;;48.80;34.67;;;;;;;;;;5020317;28;20459;-78
2022/01/02 05:43:23;;;;;;;27.55;20.13;;;;;;;;;;5020028;28;20024;-78
2022/01/02 05:45:49;;;;;;;25.75;17.88;;;;;;;;;;5038315;28;20712;-78
2022/01/02 05:48:14;;;;;;;26.33;18.05;;;;;;;;;;5020378;28;20055;-78
2022/01/02 05:50:39;;;;;;;25.67;18.50;;;;;;;;;;5037673;28;20068;-79
2022/01/02 05:53:05;;;;;;;19.65;13.80;;;;;;;;;;5038433;28;20036;-78
2022/01/02 05:55:30;;;;;;;24.58;17.08;;;;;;;;;;5039206;28;20020;-78
2022/01/02 05:57:55;;;;;;;24.73;16.50;;;;;;;;;;5019742;28;20056;-78
2022/01/02 06:00:21;;;;;;;22.63;16.55;;;;;;;;;;5019987;28;20017;-78
2022/01/02 06:02:46;;;;;;;18.65;13.63;;;;;;;;;;5037981;28;20028;-78
2022/01/02 06:05:12;;;;;;;22.02;13.00;;;;;;;;;;5019343;28;20464;-78
2022/01/02 06:07:37;;;;;;;13.90;10.43;;;;;;;;;;5020002;28;20033;-78
2022/01/02 06:10:04;;;;;;;18.88;12.52;;;;;;;;;;5020265;28;20028;-78
2022/01/02 06:12:29;;;;;;;24.25;15.13;;;;;;;;;;5037234;28;20025;-78
2022/01/02 06:14:54;;;;;;;22.85;14.80;;;;;;;;;;5020213;28;20467;-77
2022/01/02 06:17:20;;;;;;;26.40;15.95;;;;;;;;;;5019465;28;20107;-78
2022/01/02 06:19:45;;;;;;;31.58;17.77;;;;;;;;;;5020995;28;20017;-78
2022/01/02 06:22:10;;;;;;;26.13;16.98;;;;;;;;;;5037714;28;20024;-79
2022/01/02 06:24:36;;;;;;;25.58;16.45;;;;;;;;;;5019254;28;20071;-78
2022/01/02 06:27:01;;;;;;;28.67;18.35;;;;;;;;;;5038418;28;20079;-79
2022/01/02 06:29:26;;;;;;;27.25;15.85;;;;;;;;;;5018531;28;20460;-78
2022/01/02 06:31:52;;;;;;;30.55;18.52;;;;;;;;;;5019270;28;20028;-78
2022/01/02 06:34:17;;;;;;;28.02;17.00;;;;;;;;;;5038150;28;20032;-79
2022/01/02 06:36:42;;;;;;;33.53;20.58;;;;;;;;;;5037997;28;20515;-79
2022/01/02 06:39:08;;;;;;;31.92;20.20;;;;;;;;;;5019274;28;20024;-79
2022/01/02 06:41:33;;;;;;;40.70;25.23;;;;;;;;;;5015924;28;20057;-79
2022/01/02 06:43:58;;;;;;;85.97;47.60;;;;;;;;;;5017551;28;20037;-79
2022/01/02 06:46:24;;;;;;;45.15;27.05;;;;;;;;;;5015882;28;20049;-79
2022/01/02 06:48:49;;;;;;;43.92;27.25;;;;;;;;;;5015677;28;20848;-79
2022/01/02 06:51:14;;;;;;;48.53;32.80;;;;;;;;;;5017436;28;20606;-79
2022/01/02 06:53:40;;;;;;;60.97;41.67;;;;;;;;;;5016808;28;20068;-79
2022/01/02 06:56:05;;;;;;;100.43;61.55;;;;;;;;;;5015530;28;20036;-78
2022/01/02 06:58:31;;;;;;;88.45;54.50;;;;;;;;;;5018349;28;20042;-79
2022/01/02 07:00:57;;;;;;;56.72;35.03;;;;;;;;;;5017608;28;20116;-79
2022/01/02 07:03:24;;;;;;;87.30;50.28;;;;;;;;;;5015607;28;20551;-79
2022/01/02 07:05:50;;;;;;;143.30;76.45;;;;;;;;;;5016934;28;20427;-78
2022/01/02 07:08:15;;;;;;;154.77;85.30;;;;;;;;;;5018288;28;20083;-79
2022/01/02 07:10:40;;;;;;;113.65;62.45;;;;;;;;;;5018141;28;20057;-79
2022/01/02 07:13:06;;;;;;;87.15;52.03;;;;;;;;;;5015385;28;20056;-79
2022/01/02 07:15:31;;;;;;;81.32;48.25;;;;;;;;;;5016225;28;20820;-79
2022/01/02 07:17:57;;;;;;;84.38;49.90;;;;;;;;;;5017091;28;20577;-78
2022/01/02 07:20:22;;;;;;;64.00;36.90;;;;;;;;;;5016940;28;20033;-79
2022/01/02 07:22:47;;;;;;;74.10;44.78;;;;;;;;;;5015023;28;20053;-79
2022/01/02 07:25:13;;;;;;;85.95;50.50;;;;;;;;;;5016249;28;20091;-78
2022/01/02 07:27:38;;;;;;;261.08;116.13;;;;;;;;;;5016335;28;20091;-79
2022/01/02 07:30:04;;;;;;;644.05;265.25;;;;;;;;;;5017363;28;20025;-79
2022/01/02 07:32:29;;;;;;;267.88;111.55;;;;;;;;;;5016957;28;20071;-79
2022/01/02 07:34:55;;;;;;;507.65;192.88;;;;;;;;;;5016377;28;20457;-78
2022/01/02 07:37:20;;;;;;;279.95;145.77;;;;;;;;;;5016751;28;20033;-78
2022/01/02 07:39:45;;;;;;;1004.28;443.15;;;;;;;;;;5014716;28;20056;-79
2022/01/02 07:42:11;;;;;;;401.75;154.25;;;;;;;;;;5014394;28;20056;-78
2022/01/02 07:44:38;;;;;;;148.45;71.60;;;;;;;;;;5015053;28;20103;-79
2022/01/02 07:47:07;;;;;;;139.23;72.30;;;;;;;;;;5017496;28;20469;-80
2022/01/02 07:49:32;;;;;;;181.15;90.72;;;;;;;;;;5015549;28;20087;-78
2022/01/02 07:51:58;;;;;;;176.15;84.03;;;;;;;;;;5014304;28;20424;-78
2022/01/02 07:54:23;;;;;;;95.30;51.08;;;;;;;;;;5016346;28;20025;-77
2022/01/02 07:56:49;;;;;;;58.35;35.97;;;;;;;;;;5015803;28;20453;-78
2022/01/02 07:59:14;;;;;;;183.70;113.47;;;;;;;;;;5016739;28;20154;-79
2022/01/02 08:01:39;;;;;;;137.70;79.90;;;;;;;;;;5015518;28;20021;-78
2022/01/02 08:04:05;;;;;;;111.43;64.63;;;;;;;;;;5013853;28;20103;-78
2022/01/02 08:06:30;;;;;;;103.88;66.70;;;;;;;;;;5016616;28;20033;-79
2022/01/02 08:08:56;;;;;;;63.83;44.22;;;;;;;;;;5016620;28;20551;-79
2022/01/02 08:11:21;;;;;;;163.98;89.15;;;;;;;;;;5015515;28;20025;-78
2022/01/02 08:13:47;;;;;;;60.00;35.22;;;;;;;;;;5015955;28;20029;-77
2022/01/02 08:16:12;;;;;;;35.17;23.50;;;;;;;;;;5013542;28;20022;-77
2022/01/02 08:18:38;;;;;;;23.35;18.13;;;;;;;;;;5016810;28;20365;-77
2022/01/02 08:21:03;;;;;;;59.58;40.40;;;;;;;;;;5015090;28;20033;-77
2022/01/02 08:23:29;;;;;;;30.08;23.15;;;;;;;;;;5015208;28;20055;-77
2022/01/02 08:25:54;;;;;;;34.78;24.38;;;;;;;;;;5013932;28;20021;-77
2022/01/02 08:28:20;;;;;;;50.38;35.13;;;;;;;;;;5015466;28;20025;-78
2022/01/02 08:30:47;;;;;;;23.10;18.52;;;;;;;;;;5015164;28;20025;-79
2022/01/02 08:33:13;;;;;;;26.77;20.83;;;;;;;;;;5016428;28;20110;-78
2022/01/02 08:35:38;;;;;;;23.25;17.90;;;;;;;;;;5016292;28;20122;-78
2022/01/02 08:38:04;;;;;;;54.78;41.22;;;;;;;;;;5013756;28;20022;-77
2022/01/02 08:40:29;;;;;;;30.73;23.55;;;;;;;;;;5013892;28;20113;-77
2022/01/02 08:42:55;;;;;;;18.50;14.48;;;;;;;;;;5032914;28;20069;-77
2022/01/02 08:45:20;;;;;;;26.67;20.77;;;;;;;;;;5034893;28;20033;-77
2022/01/02 08:47:45;;;;;;;30.60;22.63;;;;;;;;;;5017100;28;20472;-77
2022/01/02 08:50:11;;;;;;;13.45;11.73;;;;;;;;;;5035013;28;20480;-78
2022/01/02 08:52:36;;;;;;;14.35;12.70;;;;;;;;;;5033991;28;20024;-78
2022/01/02 08:55:02;;;;;;;23.20;17.73;;;;;;;;;;5018231;28;20025;-78
2022/01/02 08:57:27;;;;;;;15.68;11.95;;;;;;;;;;5016898;28;20048;-78
2022/01/02 08:59:52;;;;;;;14.98;13.02;;;;;;;;;;5034428;28;20448;-77
2022/01/02 09:02:18;;;;;;;13.93;11.48;;;;;;;;;;5017028;28;20017;-78
2022/01/02 09:04:43;;;;;;;26.20;18.77;;;;;;;;;;5017220;28;20105;-78
2022/01/02 09:07:08;;;;;;;19.50;11.38;;;;;;;;;;5035086;28;20032;-78
2022/01/02 09:09:35;;;;;;;17.92;13.00;;;;;;;;;;5017075;28;20460;-78
2022/01/02 09:12:00;;;;;;;24.95;16.95;;;;;;;;;;5016985;28;20036;-78
2022/01/02 09:14:26;;;;;;;18.27;13.90;;;;;;;;;;5016435;28;20033;-77
2022/01/02 09:16:51;;;;;;;29.15;20.98;;;;;;;;;;5034362;28;20107;-77
2022/01/02 09:19:17;;;;;;;21.70;17.00;;;;;;;;;;5035887;28;20029;-77
2022/01/02 09:21:42;;;;;;;27.67;18.35;;;;;;;;;;5016458;28;20021;-76
2022/01/02 09:24:07;;;;;;;35.33;24.40;;;;;;;;;;5035389;28;20036;-77
2022/01/02 09:26:33;;;;;;;22.95;17.05;;;;;;;;;;5034182;28;20028;-77
2022/01/02 09:28:58;;;;;;;25.33;17.98;;;;;;;;;;5016601;28;20032;-77
2022/01/02 09:31:24;;;;;;;23.38;16.20;;;;;;;;;;5034392;28;20021;-78
2022/01/02 09:33:49;;;;;;;29.27;21.65;;;;;;;;;;5016229;28;20032;-78
2022/01/02 09:36:15;;;;;;;15.10;12.30;;;;;;;;;;5016508;28;20512;-78
2022/01/02 09:38:42;;;;;;;16.08;11.68;;;;;;;;;;5034460;28;20017;-78
2022/01/02 09:41:07;;;;;;;14.10;11.68;;;;;;;;;;5015734;28;20036;-77
2022/01/02 09:43:32;;;;;;;10.75;8.65;;;;;;;;;;5017707;28;20029;-77
2022/01/02 09:45:59;;;;;;;8.65;7.45;;;;;;;;;;5035015;28;20036;-77
2022/01/02 09:48:24;;;;;;;12.10;10.77;;;;;;;;;;5015702;28;20025;-77
2022/01/02 09:50:51;;;;;;;11.68;9.40;;;;;;;;;;5034224;28;20087;-78
2022/01/02 09:53:17;;;;;;;16.45;12.02;;;;;;;;;;5016486;28;20018;-77
2022/01/02 09:55:42;;;;;;;11.90;9.95;;;;;;;;;;5016107;28;20025;-78
2022/01/02 09:58:12;;;;;;;23.40;16.40;;;;;;;;;;5017749;28;20544;-78
2022/01/02 10:00:37;;;;;;;;;;;;;;;;;;5036043;28;20460;-78
2022/01/02 10:03:03;;;;;;;11.10;9.60;;;;;;;;;;5034357;28;19908;-78
2022/01/02 10:05:30;;;;;;;12.02;8.15;;;;;;;;;;5019590;28;20087;-77
2022/01/02 10:07:56;;;;;;;8.10;6.50;;;;;;;;;;5019947;28;20052;-78
2022/01/02 10:10:31;;;;;;;9.18;7.05;;;;;;;;;;5038191;28;20025;-78
2022/01/02 10:12:59;;;;;;;8.30;6.40;;;;;;;;;;5019796;28;20021;-78
2022/01/02 10:15:25;;;;;;;9.70;7.88;;;;;;;;;;5038087;28;20047;-77
2022/01/02 10:17:56;;;;;;;8.77;7.88;;;;;;;;;;5019538;28;20025;-77
2022/01/02 10:20:22;;;;;;;11.00;9.68;;;;;;;;;;5038955;28;20025;-77
2022/01/02 10:23:01;;;;;;;12.05;10.73;;;;;;;;;;5019306;28;20029;-78
2022/01/02 10:25:46;;;;;;;13.00;10.88;;;;;;;;;;5037919;28;20123;-78
2022/01/02 10:28:18;;;;;;;106.85;82.03;;;;;;;;;;5019455;28;20060;-79
2022/01/02 10:30:47;;;;;;;66.90;50.15;;;;;;;;;;5019215;28;20124;-77
2022/01/02 10:33:13;;;;;;;18.30;14.50;;;;;;;;;;5019322;28;20141;-77
2022/01/02 10:35:38;;;;;;;11.57;9.18;;;;;;;;;;5037470;28;20064;-78
2022/01/02 10:38:04;;;;;;;19.45;14.65;;;;;;;;;;5019159;28;20094;-77
2022/01/02 10:40:40;;;;;;;18.90;12.65;;;;;;;;;;5019684;28;20025;-78
2022/01/02 10:43:09;;;;;;;21.98;16.13;;;;;;;;;;5015583;28;20625;-78
2022/01/02 10:45:43;;;;;;;11.45;9.10;;;;;;;;;;5015625;28;20049;-79
2022/01/02 10:48:12;;;;;;;11.77;9.15;;;;;;;;;;5018452;28;20033;-78
2022/01/02 10:50:38;;;;;;;64.95;50.10;;;;;;;;;;5015542;28;20176;-77
2022/01/02 10:53:14;;;;;;;48.75;37.28;;;;;;;;;;5017474;28;20118;-78
2022/01/02 10:55:41;;;;;;;20.20;15.13;;;;;;;;;;5017530;28;20033;-78
2022/01/02 10:58:07;;;;;;;15.05;10.85;;;;;;;;;;5015269;28;20032;-78
2022/01/02 11:00:33;;;;;;;19.70;15.48;;;;;;;;;;5018172;28;20369;-78
2022/01/02 11:02:58;;;;;;;28.50;21.42;;;;;;;;;;5017726;28;20029;-78
2022/01/02 11:05:27;;;;;;;34.40;29.00;;;;;;;;;;5017794;28;20029;-77
2022/01/02 11:07:58;;;;;;;21.25;15.43;;;;;;;;;;5015938;28;20108;-77
2022/01/02 11:10:23;;;;;;;12.95;11.35;;;;;;;;;;5015324;28;20147;-78
2022/01/02 11:12:49;;;;;;;27.33;20.88;;;;;;;;;;5015137;28;20108;-77
2022/01/02 11:15:16;;;;;;;21.63;17.27;;;;;;;;;;5016923;28;20029;-77
2022/01/02 11:17:42;;;;;;;11.02;9.63;;;;;;;;;;5015256;28;20056;-77
2022/01/02 11:20:26;;;;;;;12.25;9.18;;;;;;;;;;5015120;28;20033;-78
2022/01/02 11:23:07;;;;;;;16.30;12.80;;;;;;;;;;5018267;28;20041;-78
2022/01/02 11:25:41;;;;;;;13.60;10.18;;;;;;;;;;5014789;28;20029;-76
2022/01/02 11:28:33;;;;;;;22.05;18.52;;;;;;;;;;5015250;28;20026;-78
2022/01/02 11:30:58;;;;;;;356.92;178.32;;;;;;;;;;5012932;28;20033;-77
2022/01/02 11:33:34;;;;;;;239.75;127.60;;;;;;;;;;5015906;28;20025;-78
2022/01/02 11:36:01;;;;;;;37.72;24.83;;;;;;;;;;5016117;28;20091;-77
2022/01/02 11:38:40;;;;;;;23.75;18.10;;;;;;;;;;5014823;28;20030;-78
2022/01/02 11:41:05;;;;;;;12.38;9.50;;;;;;;;;;5018238;28;20060;-78
2022/01/02 11:43:49;;;;;;;13.38;9.25;;;;;;;;;;5018133;28;20060;-77
2022/01/02 11:46:21;;;;;;;10.27;8.40;;;;;;;;;;5017895;28;20033;-77
2022/01/02 11:49:05;;;;;;;12.05;8.57;;;;;;;;;;5036158;28;20021;-77
2022/01/02 11:51:51;;;;;;;11.00;8.80;;;;;;;;;;5035486;28;20056;-78
2022/01/02 11:54:47;;;;;;;13.45;10.80;;;;;;;;;;5033810;28;20047;-78
2022/01/02 11:57:20;;;;;;;22.88;15.35;;;;;;;;;;5035852;28;20078;-79
2022/01/02 11:59:46;;;;;;;19.20;13.43;;;;;;;;;;5014804;28;20044;-79
2022/01/02 12:02:26;;;;;;;16.75;11.93;;;;;;;;;;4996227;28;20414;-77
2022/01/02 12:05:02;;;;;;;15.65;13.32;;;;;;;;;;4996807;28;20061;-78
2022/01/02 12:07:33;;;;;;;12.55;8.80;;;;;;;;;;5016170;28;20021;-77
2022/01/02 12:10:14;;;;;;;12.52;9.75;;;;;;;;;;5015542;28;20021;-77
2022/01/02 12:12:58;;;;;;;10.48;8.55;;;;;;;;;;5016320;28;20029;-78
2022/01/02 12:15:25;;;;;;;9.57;7.65;;;;;;;;;;5012610;28;20037;-78
2022/01/02 12:18:06;;;;;;;11.88;9.60;;;;;;;;;;4997518;28;20566;-77
2022/01/02 12:20:50;;;;;;;9.38;8.38;;;;;;;;;;5016992;28;20021;-78
2022/01/02 12:23:41;;;;;;;11.70;8.77;;;;;;;;;;5015695;28;20025;-77
2022/01/02 12:26:12;;;;;;;25.92;16.83;;;;;;;;;;4988926;28;20396;-77
2022/01/02 12:28:47;;;;;;;14.45;12.00;;;;;;;;;;5014365;28;20096;-77
2022/01/02 12:31:13;;;;;;;8.50;7.25;;;;;;;;;;5013836;28;20036;-78
2022/01/02 12:33:39;;;;;;;18.50;13.75;;;;;;;;;;5014980;28;20021;-77
2022/01/02 12:36:08;;;;;;;18.13;14.20;;;;;;;;;;5016308;28;20032;-78
2022/01/02 12:38:54;;;;;;;13.43;12.07;;;;;;;;;;5014167;28;20037;-77
2022/01/02 12:41:24;;;;;;;16.52;14.27;;;;;;;;;;5014699;28;20084;-77
2022/01/02 12:44:10;;;;;;;18.08;16.08;;;;;;;;;;4997185;28;20036;-77
2022/01/02 12:46:38;;;;;;;26.20;23.05;;;;;;;;;;5012644;28;20038;-78
2022/01/02 12:49:09;;;;;;;15.93;13.50;;;;;;;;;;5016015;28;20029;-79
2022/01/02 12:51:36;;;;;;;9.10;6.20;;;;;;;;;;5014845;28;20025;-77
2022/01/02 12:54:06;;;;;;;9.35;7.90;;;;;;;;;;4997188;28;20380;-78
2022/01/02 12:56:32;;;;;;;13.23;11.88;;;;;;;;;;5015283;28;20024;-78
2022/01/02 12:59:17;;;;;;;6.00;4.63;;;;;;;;;;5016235;28;20453;-78
2022/01/02 13:01:49;;;;;;;7.82;4.82;;;;;;;;;;5015035;28;20040;-78
2022/01/02 13:04:15;;;;;;;9.25;7.68;;;;;;;;;;5013390;28;20069;-77
2022/01/02 13:06:43;;;;;;;7.25;5.50;;;;;;;;;;5013696;28;20080;-77
2022/01/02 13:09:08;;;;;;;10.05;9.05;;;;;;;;;;5014758;28;20025;-78
2022/01/02 13:11:34;;;;;;;11.93;8.25;;;;;;;;;;5014814;28;20022;-77
2022/01/02 13:14:00;;;;;;;9.43;8.18;;;;;;;;;;5015765;28;20075;-77
2022/01/02 13:16:25;;;;;;;8.73;7.15;;;;;;;;;;5015338;28;20045;-77
2022/01/02 13:18:51;;;;;;;7.90;5.88;;;;;;;;;;5013160;28;20025;-77
2022/01/02 13:21:16;;;;;;;8.95;8.02;;;;;;;;;;4997166;28;20059;-77
2022/01/02 13:23:42;;;;;;;11.40;8.85;;;;;;;;;;5015171;28;20017;-77
2022/01/02 13:26:20;;;;;;;11.20;8.45;;;;;;;;;;5013114;28;20120;-77
2022/01/02 13:28:46;;;;;;;10.38;9.00;;;;;;;;;;5015023;28;20108;-78
2022/01/02 13:31:11;;;;;;;9.77;8.02;;;;;;;;;;5015681;28;20013;-78
2022/01/02 13:33:43;;;;;;;9.48;7.05;;;;;;;;;;4996857;28;20120;-76
2022/01/02 13:36:09;;;;;;;10.45;7.50;;;;;;;;;;5014888;28;20033;-78
2022/01/02 13:38:48;;;;;;;19.30;13.57;;;;;;;;;;4996707;28;20018;-78
2022/01/02 13:41:13;;;;;;;9.77;7.15;;;;;;;;;;5000507;28;20148;-78
2022/01/02 13:43:39;;;;;;;22.70;17.98;;;;;;;;;;5001787;28;20249;-77
2022/01/02 13:46:04;;;;;;;13.85;11.18;;;;;;;;;;5018627;28;20091;-78
2022/01/02 13:48:30;;;;;;;12.77;10.77;;;;;;;;;;5019447;28;20707;-78
2022/01/02 13:50:58;;;;;;;11.18;8.70;;;;;;;;;;5018662;28;20026;-77
2022/01/02 13:53:26;;;;;;;38.55;27.90;;;;;;;;;;4999992;28;20025;-78
2022/01/02 13:55:53;;;;;;;11.55;8.15;;;;;;;;;;5018104;28;20096;-77
2022/01/02 13:58:18;;;;;;;9.30;7.68;;;;;;;;;;5018296;28;20049;-77
2022/01/02 14:00:45;;;;;;;10.95;7.22;;;;;;;;;;5017874;28;20107;-77
2022/01/02 14:03:26;;;;;;;14.40;11.63;;;;;;;;;;5018405;28;20025;-77
2022/01/02 14:05:52;;;;;;;18.95;13.27;;;;;;;;;;5018134;28;20138;-78
2022/01/02 14:08:18;;;;;;;12.73;8.93;;;;;;;;;;5017997;28;20101;-79
2022/01/02 14:10:44;;;;;;;14.15;10.07;;;;;;;;;;5018156;28;20982;-77
2022/01/02 14:13:13;;;;;;;22.40;15.73;;;;;;;;;;4999902;28;20042;-77
2022/01/02 14:15:38;;;;;;;42.33;30.73;;;;;;;;;;4999950;28;20590;-78
2022/01/02 14:18:04;;;;;;;14.95;12.30;;;;;;;;;;5016527;28;20297;-78
2022/01/02 14:20:34;;;;;;;16.00;10.13;;;;;;;;;;5018784;28;20026;-78
2022/01/02 14:23:01;;;;;;;16.80;12.90;;;;;;;;;;5018622;28;20021;-76
2022/01/02 14:25:27;;;;;;;23.67;17.80;;;;;;;;;;5017565;28;20033;-78